Time;durP1;ratioP1;P1;durP2;ratioP2;P2;SDS_P1;SDS_P2;PMS_P1;PMS_P2;Temp;Humidity;BMP_temperature;BMP_pressure;BME280_temperature;BME280_humidity;BME280_pressure;Samples;Min_cycle;Max_cycle;Signal;HPM_P1;HPM_P2
2021/06/11 00:00:45;;;;;;;3.35;3.15;;;;;;;16.58;70.92;98806.34;5024159;28;20061;-64
2021/06/11 00:03:11;;;;;;;4.00;3.08;;;;;;;16.51;71.12;98811.78;5023929;28;20044;-65
2021/06/11 00:05:37;;;;;;;3.70;3.30;;;;;;;16.46;71.93;98806.81;5031752;28;20033;-64
2021/06/11 00:08:03;;;;;;;2.95;2.83;;;;;;;16.36;71.72;98792.53;5023961;28;20116;-64
2021/06/11 00:10:29;;;;;;;3.25;3.05;;;;;;;16.37;71.70;98808.00;5025237;28;20120;-64
2021/06/11 00:12:55;;;;;;;4.00;3.60;;;;;;;16.34;71.98;98797.75;5022439;28;20119;-64
2021/06/11 00:15:21;;;;;;;3.50;3.30;;;;;;;16.34;72.15;98792.56;5029404;28;20057;-66
2021/06/11 00:17:46;;;;;;;4.60;4.18;;;;;;;16.40;71.61;98792.34;5024317;28;20033;-65
2021/06/11 00:20:12;;;;;;;3.95;2.85;;;;;;;16.39;72.06;98793.25;5024490;28;20407;-64
2021/06/11 00:22:38;;;;;;;4.85;2.83;;;;;;;16.41;71.92;98788.00;5023602;28;20042;-64
2021/06/11 00:25:08;;;;;;;3.30;3.00;;;;;;;16.38;71.51;98798.47;5023960;28;20030;-64
2021/06/11 00:27:34;;;;;;;22.27;4.20;;;;;;;16.32;72.34;98794.41;5020948;28;20208;-64
2021/06/11 00:30:00;;;;;;;2.70;2.50;;;;;;;16.29;72.82;98783.34;5023024;28;20129;-64
2021/06/11 00:32:25;;;;;;;4.70;3.10;;;;;;;16.27;72.24;98785.13;5022372;28;20037;-65
2021/06/11 00:34:51;;;;;;;543.93;491.60;;;;;;;16.28;71.94;98785.06;5023603;28;20445;-65
2021/06/11 00:37:16;;;;;;;2.97;2.75;;;;;;;16.23;72.48;98787.00;5023098;28;20349;-65
2021/06/11 00:39:41;;;;;;;3.30;3.10;;;;;;;16.25;72.19;98782.59;5023172;28;20055;-66
2021/06/11 00:42:07;;;;;;;3.38;3.17;;;;;;;16.24;72.60;98782.66;5024461;28;20076;-66
2021/06/11 00:44:33;;;;;;;3.50;3.20;;;;;;;16.27;71.53;98779.94;5026521;28;20125;-66
2021/06/11 00:46:58;;;;;;;4.50;4.10;;;;;;;16.27;71.57;98783.38;5023326;28;20108;-65
2021/06/11 00:49:24;;;;;;;3.13;2.92;;;;;;;16.37;70.97;98781.28;5022170;28;20021;-65
2021/06/11 00:51:50;;;;;;;3.00;2.72;;;;;;;16.32;70.83;98783.19;5022782;28;20096;-65
2021/06/11 00:54:15;;;;;;;2.67;2.47;;;;;;;16.30;70.84;98774.66;5020439;28;20077;-65
2021/06/11 00:56:41;;;;;;;3.58;3.28;;;;;;;16.24;70.93;98780.06;5023945;28;20074;-65
2021/06/11 00:59:07;;;;;;;3.15;2.95;;;;;;;16.18;71.24;98767.38;5024757;28;20450;-64
2021/06/11 01:01:33;;;;;;;2.80;2.65;;;;;;;16.18;70.49;98768.22;5021407;28;20053;-66
2021/06/11 01:03:58;;;;;;;3.55;3.30;;;;;;;16.18;70.94;98777.72;5020284;28;20126;-65
2021/06/11 01:06:25;;;;;;;5.60;3.20;;;;;;;16.24;70.19;98777.50;5022270;28;20346;-65
2021/06/11 01:08:51;;;;;;;3.10;2.85;;;;;;;16.27;70.25;98773.03;5022097;28;20050;-65
2021/06/11 01:11:18;;;;;;;3.28;3.08;;;;;;;16.11;70.87;98763.34;5021376;28;20347;-66
2021/06/11 01:13:43;;;;;;;3.33;3.13;;;;;;;16.10;70.97;98769.41;5019545;28;20026;-65
2021/06/11 01:16:09;;;;;;;3.17;2.97;;;;;;;16.03;71.22;98771.41;5021002;28;20030;-65
2021/06/11 01:18:35;;;;;;;3.20;2.95;;;;;;;16.18;70.44;98760.47;5023958;28;20113;-65
2021/06/11 01:21:01;;;;;;;2.85;2.70;;;;;;;16.26;70.10;98773.09;5021227;28;20041;-65
2021/06/11 01:23:44;;;;;;;2.92;2.72;;;;;;;16.24;69.84;98773.16;5023360;28;20029;-65
2021/06/11 01:26:34;;;;;;;3.25;3.05;;;;;;;16.36;69.08;98764.91;5023883;28;20029;-65
2021/06/11 01:29:04;;;;;;;3.38;3.17;;;;;;;16.42;69.17;98767.22;5030390;28;20063;-65
2021/06/11 01:31:31;;;;;;;4.22;3.80;;;;;;;16.46;68.39;98763.63;5022354;28;20044;-65
2021/06/11 01:34:03;;;;;;;2.58;2.38;;;;;;;16.54;68.41;98762.47;5023198;28;20060;-66
2021/06/11 01:36:38;;;;;;;4.30;2.95;;;;;;;16.51;68.41;98760.84;5020610;28;20430;-65
2021/06/11 01:39:06;;;;;;;3.20;3.00;;;;;;;16.40;68.78;98758.72;5028794;28;20047;-64
2021/06/11 01:41:33;;;;;;;3.08;2.83;;;;;;;16.45;68.51;98749.00;5020761;28;20077;-66
2021/06/11 01:43:59;;;;;;;2.80;2.60;;;;;;;16.46;68.22;98747.28;5020678;28;20401;-65
2021/06/11 01:46:29;;;;;;;2.97;2.75;;;;;;;16.39;68.73;98743.22;5030503;28;20037;-65
2021/06/11 01:48:55;;;;;;;3.45;2.83;;;;;;;16.46;68.73;98753.25;5020949;28;20037;-66
2021/06/11 01:51:20;;;;;;;467.60;414.87;;;;;;;16.36;68.98;98733.84;5023870;28;20486;-66
2021/06/11 01:53:48;;;;;;;3.03;2.83;;;;;;;16.39;68.85;98746.66;5022774;28;20038;-66
2021/06/11 01:56:17;;;;;;;4.43;3.97;;;;;;;16.23;70.29;98737.84;5020204;28;20033;-65
2021/06/11 01:58:44;;;;;;;534.47;480.27;;;;;;;16.22;69.99;98740.47;5022109;28;20065;-65
2021/06/11 02:01:14;;;;;;;3.50;2.63;;;;;;;16.20;69.68;98742.31;5020668;28;20079;-66
2021/06/11 02:03:41;;;;;;;578.45;529.20;;;;;;;16.12;69.71;98740.03;5022213;28;20044;-66
2021/06/11 02:06:08;;;;;;;569.67;514.83;;;;;;;16.10;69.86;98735.78;5018434;28;20034;-65
2021/06/11 02:08:35;;;;;;;460.07;406.37;;;;;;;16.13;69.80;98739.09;5022358;28;20811;-66
2021/06/11 02:11:01;;;;;;;447.13;347.80;;;;;;;16.09;70.33;98740.13;5020163;28;20029;-65
2021/06/11 02:13:27;;;;;;;444.20;364.77;;;;;;;16.19;69.98;98751.81;5019017;28;20037;-66
2021/06/11 02:15:55;;;;;;;4.88;3.03;;;;;;;16.15;69.72;98746.81;5021764;28;20048;-66
2021/06/11 02:18:21;;;;;;;437.50;354.40;;;;;;;16.18;69.77;98752.69;5023025;28;20042;-65
2021/06/11 02:20:48;;;;;;;2.83;2.63;;;;;;;16.14;69.75;98753.72;5020405;28;20691;-65
2021/06/11 02:23:13;;;;;;;2.85;2.70;;;;;;;16.11;69.27;98753.00;5020644;28;20151;-65
2021/06/11 02:25:39;;;;;;;3.03;2.83;;;;;;;16.13;69.64;98756.34;5021847;28;20116;-66
2021/06/11 02:28:05;;;;;;;2.88;2.67;;;;;;;16.11;69.45;98748.69;5024840;28;20402;-65
2021/06/11 02:30:30;;;;;;;3.22;3.03;;;;;;;16.20;69.05;98745.72;5021552;28;20096;-66
2021/06/11 02:32:55;;;;;;;3.17;2.88;;;;;;;16.24;69.13;98749.03;5022119;28;20472;-65
2021/06/11 02:35:25;;;;;;;3.58;3.28;;;;;;;16.32;68.40;98749.56;5020765;28;20395;-65
2021/06/11 02:37:52;;;;;;;4.38;3.00;;;;;;;16.36;68.15;98739.03;5022344;28;20070;-66
2021/06/11 02:40:18;;;;;;;3.83;3.00;;;;;;;16.34;67.96;98738.25;5022706;28;20038;-65
2021/06/11 02:42:46;;;;;;;3.13;2.92;;;;;;;16.38;68.07;98737.22;5020918;28;20099;-65
2021/06/11 02:45:14;;;;;;;3.33;3.03;;;;;;;16.29;68.34;98747.97;5021545;28;20041;-65
2021/06/11 02:47:45;;;;;;;2.70;2.50;;;;;;;16.28;68.18;98738.50;5020465;28;20036;-66
2021/06/11 02:50:18;;;;;;;3.00;2.70;;;;;;;16.26;68.86;98736.88;5018509;28;20084;-66
2021/06/11 02:52:47;;;;;;;3.20;3.00;;;;;;;16.28;68.24;98735.91;5019772;28;20045;-65
2021/06/11 02:55:15;;;;;;;3.30;3.10;;;;;;;16.29;68.44;98735.03;5022852;28;20056;-66
2021/06/11 02:58:12;;;;;;;3.22;2.95;;;;;;;16.33;67.71;98735.72;5022036;28;20033;-65
2021/06/11 03:00:40;;;;;;;3.28;3.05;;;;;;;16.33;67.36;98739.16;5020595;28;20115;-66
2021/06/11 03:03:15;;;;;;;2.72;2.58;;;;;;;16.39;66.76;98740.63;5021932;28;20096;-65
2021/06/11 03:05:42;;;;;;;3.70;2.85;;;;;;;16.38;66.88;98744.97;5019299;28;20070;-66
2021/06/11 03:08:11;;;;;;;3.35;3.05;;;;;;;16.34;67.30;98743.41;5019835;28;20050;-66
2021/06/11 03:10:40;;;;;;;3.25;3.05;;;;;;;16.35;67.53;98750.28;5018844;28;20042;-66
2021/06/11 03:13:08;;;;;;;2.90;2.70;;;;;;;16.41;67.08;98750.03;5022555;28;20060;-66
2021/06/11 03:15:36;;;;;;;2.90;2.70;;;;;;;16.33;67.70;98761.59;5022680;28;20176;-66
2021/06/11 03:18:05;;;;;;;3.13;2.92;;;;;;;16.23;67.70;98763.72;5020867;28;20351;-66
2021/06/11 03:20:35;;;;;;;3.10;2.72;;;;;;;16.19;67.80;98767.31;5027246;28;20037;-66
2021/06/11 03:23:19;;;;;;;3.65;3.45;;;;;;;16.17;69.19;98773.44;5023685;28;20413;-66
2021/06/11 03:25:51;;;;;;;4.38;3.85;;;;;;;16.22;68.68;98769.78;5022133;28;20283;-66
2021/06/11 03:28:41;;;;;;;3.30;3.10;;;;;;;16.13;69.32;98772.72;5031198;28;20032;-65
2021/06/11 03:31:10;;;;;;;3.00;2.80;;;;;;;16.12;69.35;98768.47;5023605;28;20044;-66
2021/06/11 03:33:38;;;;;;;4.05;3.35;;;;;;;16.05;70.40;98772.19;5024651;28;20033;-66
2021/06/11 03:36:12;;;;;;;3.63;3.33;;;;;;;16.04;70.21;98778.25;5023822;28;20044;-66
2021/06/11 03:38:39;;;;;;;3.42;3.22;;;;;;;15.98;70.53;98774.19;5024492;28;20065;-66
2021/06/11 03:41:06;;;;;;;4.80;3.30;;;;;;;15.90;71.13;98755.53;5022189;28;20033;-66
2021/06/11 03:43:32;;;;;;;3.55;3.25;;;;;;;15.94;72.47;98772.63;5025587;28;20082;-65
2021/06/11 03:46:00;;;;;;;4.00;3.70;;;;;;;15.93;72.17;98773.50;5020545;28;20030;-66
2021/06/11 03:48:28;;;;;;;3.55;3.25;;;;;;;16.00;72.46;98768.94;5032213;28;20318;-66
2021/06/11 03:50:54;;;;;;;4.65;3.45;;;;;;;16.05;71.56;98759.25;5024432;28;20037;-66
2021/06/11 03:53:23;;;;;;;3.70;3.40;;;;;;;16.10;71.09;98757.34;5024324;28;20088;-66
2021/06/11 03:55:54;;;;;;;3.72;3.50;;;;;;;16.28;71.52;98764.38;5024283;28;20033;-65
2021/06/11 03:58:35;;;;;;;3.47;3.28;;;;;;;16.64;68.74;98759.47;5023616;28;20039;-67
2021/06/11 04:01:03;;;;;;;3.95;3.20;;;;;;;16.85;68.09;98762.91;5024007;28;20355;-65
2021/06/11 04:03:28;;;;;;;5.47;3.15;;;;;;;17.07;67.09;98761.09;5022317;28;20025;-66
2021/06/11 04:06:23;;;;;;;3.30;3.10;;;;;;;17.18;66.60;98766.66;5022096;28;20037;-66
2021/06/11 04:08:59;;;;;;;4.10;2.92;;;;;;;17.45;65.86;98763.75;4953357;29;20499;-66
2021/06/11 04:11:28;;;;;;;3.03;2.72;;;;;;;17.61;65.21;98768.22;4954338;29;20424;-66
2021/06/11 04:13:56;;;;;;;3.22;2.92;;;;;;;17.77;64.60;98768.38;4951805;29;20061;-67
2021/06/11 04:16:31;;;;;;;4.03;3.70;;;;;;;17.78;64.46;98765.69;4954884;29;20039;-66
2021/06/11 04:19:00;;;;;;;3.30;2.92;;;;;;;17.77;64.76;98756.25;4952663;29;20049;-66
2021/06/11 04:21:29;;;;;;;4.88;3.40;;;;;;;17.89;64.43;98766.97;4954349;29;20436;-65
2021/06/11 04:24:00;;;;;;;5.43;4.68;;;;;;;17.77;64.90;98765.78;4954185;29;20094;-65
2021/06/11 04:26:28;;;;;;;3.13;2.83;;;;;;;17.86;64.67;98762.78;4954139;29;20131;-64
2021/06/11 04:28:55;;;;;;;3.85;3.53;;;;;;;17.98;64.14;98769.97;4953864;28;20038;-64
2021/06/11 04:31:21;;;;;;;5.07;3.30;;;;;;;18.15;63.98;98772.63;4931301;29;20050;-64
2021/06/11 04:33:46;;;;;;;3.60;3.38;;;;;;;18.36;62.56;98768.16;4953584;29;20055;-64
2021/06/11 04:36:12;;;;;;;3.95;3.50;;;;;;;18.65;61.52;98777.16;4953362;29;20106;-66
2021/06/11 04:39:02;;;;;;;4.30;3.25;;;;;;;18.77;61.26;98778.31;4953661;29;20038;-65
2021/06/11 04:41:28;;;;;;;4.05;3.63;;;;;;;18.82;60.92;98771.13;4954443;29;20411;-66
2021/06/11 04:43:57;;;;;;;4.30;3.88;;;;;;;19.00;59.96;98776.25;4953311;29;20043;-66
2021/06/11 04:46:23;;;;;;;5.43;3.40;;;;;;;18.94;59.93;98779.13;5004340;28;20049;-66
2021/06/11 04:48:49;;;;;;;3.83;3.58;;;;;;;19.05;59.63;98782.03;5021478;28;20044;-66
2021/06/11 04:51:15;;;;;;;3.60;3.40;;;;;;;19.15;59.85;98785.00;5023826;28;20064;-65
2021/06/11 04:53:40;;;;;;;8.18;3.63;;;;;;;19.26;58.60;98769.72;5022473;28;20120;-66
2021/06/11 04:56:08;;;;;;;4.07;3.78;;;;;;;19.36;58.77;98783.06;5021555;28;20143;-67
2021/06/11 04:58:38;;;;;;;3.58;3.38;;;;;;;19.50;58.68;98791.88;5022850;28;20040;-65
2021/06/11 05:01:05;;;;;;;4.13;3.83;;;;;;;19.44;58.44;98791.31;5023793;28;20034;-65
2021/06/11 05:03:31;;;;;;;4.18;3.88;;;;;;;19.58;58.12;98788.84;5023057;28;20038;-66
2021/06/11 05:05:56;;;;;;;4.40;4.00;;;;;;;19.69;58.22;98791.72;5022049;28;20038;-66
2021/06/11 05:08:22;;;;;;;3.65;3.35;;;;;;;19.83;57.41;98793.56;5023260;28;20045;-65
2021/06/11 05:10:47;;;;;;;6.10;3.72;;;;;;;19.99;57.10;98792.66;5023648;28;20084;-65
2021/06/11 05:13:13;;;;;;;4.13;3.83;;;;;;;19.83;57.41;98794.44;5020755;28;20029;-65
2021/06/11 05:15:39;;;;;;;4.47;3.83;;;;;;;19.77;57.28;98797.38;5021905;28;20146;-66
2021/06/11 05:18:05;;;;;;;4.00;3.70;;;;;;;19.86;57.25;98793.44;5022344;28;20124;-65
2021/06/11 05:20:32;;;;;;;3.90;3.70;;;;;;;19.71;57.45;98802.88;5022958;28;20040;-65
2021/06/11 05:22:57;;;;;;;4.18;3.78;;;;;;;19.79;57.23;98803.31;5037305;28;20044;-65
2021/06/11 05:25:23;;;;;;;5.07;3.80;;;;;;;19.81;57.22;98798.88;5022844;28;20041;-65
2021/06/11 05:27:49;;;;;;;4.10;3.70;;;;;;;20.00;56.59;98796.13;5023546;28;20033;-64
2021/06/11 05:30:17;;;;;;;4.25;3.70;;;;;;;20.05;57.07;98794.09;5022885;28;20025;-67
2021/06/11 05:32:42;;;;;;;3.85;3.65;;;;;;;20.21;56.50;98796.69;5022614;28;20037;-64
2021/06/11 05:35:08;;;;;;;4.40;4.10;;;;;;;20.21;56.24;98794.94;5023515;28;20029;-66
2021/06/11 05:37:34;;;;;;;4.75;3.90;;;;;;;20.38;55.48;98791.41;5020625;28;20786;-67
2021/06/11 05:39:59;;;;;;;4.40;4.10;;;;;;;20.44;55.59;98788.50;5022790;28;20037;-65
2021/06/11 05:42:25;;;;;;;3.80;3.60;;;;;;;20.54;55.57;98783.59;5022312;28;20358;-64
2021/06/11 05:44:50;;;;;;;4.07;3.70;;;;;;;20.37;55.87;98797.53;5020330;28;20040;-66
2021/06/11 05:47:15;;;;;;;4.95;4.47;;;;;;;20.27;55.57;98791.16;5020616;28;20037;-65
2021/06/11 05:49:41;;;;;;;4.63;4.18;;;;;;;20.38;55.43;98787.06;5020655;28;20049;-67
2021/06/11 05:52:06;;;;;;;3.83;3.63;;;;;;;20.47;55.29;98788.31;5019472;28;20033;-65
2021/06/11 05:54:31;;;;;;;4.22;3.92;;;;;;;20.42;55.01;98796.38;5022834;28;20038;-65
2021/06/11 05:56:57;;;;;;;4.13;3.65;;;;;;;20.34;55.12;98809.00;5021896;28;20037;-66
2021/06/11 05:59:22;;;;;;;4.50;4.20;;;;;;;20.42;54.97;98809.41;5019597;28;20319;-66
2021/06/11 06:01:48;;;;;;;4.25;3.88;;;;;;;20.47;54.61;98799.56;5024485;28;20045;-66
2021/06/11 06:04:13;;;;;;;4.10;3.80;;;;;;;20.56;54.47;98794.75;5024246;28;20041;-66
2021/06/11 06:06:39;;;;;;;3.90;3.60;;;;;;;20.41;54.75;98788.66;5019335;28;20438;-66
2021/06/11 06:09:04;;;;;;;5.00;4.60;;;;;;;20.44;54.88;98780.66;5020614;28;20064;-66
2021/06/11 06:11:30;;;;;;;4.10;3.70;;;;;;;20.59;54.74;98786.75;5021786;28;20041;-66
2021/06/11 06:13:55;;;;;;;5.07;4.55;;;;;;;20.82;54.02;98794.94;5022937;28;20302;-66
2021/06/11 06:16:21;;;;;;;10.10;6.30;;;;;;;20.87;53.77;98785.09;5020842;28;20036;-66
2021/06/11 06:18:47;;;;;;;4.40;4.10;;;;;;;21.07;53.39;98793.50;5019105;28;20030;-65
2021/06/11 06:21:12;;;;;;;686.97;630.55;;;;;;;21.10;53.24;98788.09;5019823;28;20290;-66
2021/06/11 06:23:38;;;;;;;12.93;10.57;;;;;;;21.29;53.30;98786.13;5022526;28;20045;-66
2021/06/11 06:26:03;;;;;;;4.40;4.10;;;;;;;21.12;53.58;98786.25;5019894;28;20422;-66
2021/06/11 06:28:30;;;;;;;754.03;694.95;;;;;;;21.15;53.33;98791.31;5021849;28;20439;-66
2021/06/11 06:30:55;;;;;;;4.00;3.70;;;;;;;21.13;53.40;98793.19;5022369;28;20021;-67
2021/06/11 06:33:20;;;;;;;4.32;4.03;;;;;;;21.07;53.41;98793.50;5020934;28;20643;-69
2021/06/11 06:35:46;;;;;;;4.47;4.03;;;;;;;21.11;53.52;98788.03;5018778;28;20048;-67
2021/06/11 06:38:13;;;;;;;4.47;4.18;;;;;;;21.01;53.15;98788.66;5020465;28;20340;-66
2021/06/11 06:40:39;;;;;;;5.80;4.15;;;;;;;21.08;53.20;98800.41;5021713;28;20104;-66
2021/06/11 06:43:04;;;;;;;4.63;4.30;;;;;;;21.26;53.26;98789.75;5020498;28;20164;-65
2021/06/11 06:45:30;;;;;;;3.88;3.67;;;;;;;21.32;52.99;98794.59;5020143;28;20018;-65
2021/06/11 06:47:55;;;;;;;4.05;3.80;;;;;;;21.49;52.08;98795.34;5020113;28;20277;-67
2021/06/11 06:50:21;;;;;;;5.22;4.72;;;;;;;21.44;51.81;98790.41;5019931;28;20036;-66
2021/06/11 06:52:47;;;;;;;4.90;4.50;;;;;;;21.41;52.57;98798.44;5029228;28;20374;-67
2021/06/11 06:55:13;;;;;;;4.97;4.68;;;;;;;21.51;52.15;98793.50;5024987;28;20033;-67
2021/06/11 06:57:39;;;;;;;7.60;4.57;;;;;;;21.52;52.19;98797.78;5021756;28;20091;-68
2021/06/11 07:00:07;;;;;;;4.97;4.57;;;;;;;21.58;51.62;98793.03;5024255;28;20040;-67
2021/06/11 07:02:33;;;;;;;4.85;4.45;;;;;;;21.70;51.44;98796.66;5023209;28;20033;-66
2021/06/11 07:04:58;;;;;;;4.47;4.07;;;;;;;21.75;52.09;98792.00;5025974;28;20033;-68
2021/06/11 07:07:24;;;;;;;4.57;4.28;;;;;;;21.63;50.45;98792.75;5024934;28;20313;-67
2021/06/11 07:09:50;;;;;;;4.55;4.15;;;;;;;21.75;51.45;98799.81;5028880;28;20026;-68
2021/06/11 07:12:15;;;;;;;5.15;4.85;;;;;;;21.71;50.20;98801.78;5025044;28;20041;-68
2021/06/11 07:14:40;;;;;;;4.90;4.50;;;;;;;21.91;48.77;98802.31;5026474;28;20029;-68
2021/06/11 07:17:06;;;;;;;4.70;4.40;;;;;;;21.77;49.40;98790.13;5023175;28;20034;-68
2021/06/11 07:19:32;;;;;;;9.55;4.60;;;;;;;21.85;49.80;98796.53;5024347;28;20034;-67
2021/06/11 07:21:57;;;;;;;4.82;4.43;;;;;;;22.07;49.04;98797.84;5022748;28;20025;-67
2021/06/11 07:24:23;;;;;;;4.70;4.35;;;;;;;22.25;49.21;98794.91;5022370;28;20447;-67
2021/06/11 07:26:49;;;;;;;4.60;4.30;;;;;;;22.44;49.31;98799.81;5023959;28;20441;-67
2021/06/11 07:29:14;;;;;;;4.65;4.35;;;;;;;22.55;49.32;98781.66;5024039;28;20018;-67
2021/06/11 07:31:40;;;;;;;4.35;4.05;;;;;;;22.84;48.71;98790.22;5024236;28;20037;-68
2021/06/11 07:34:05;;;;;;;5.30;4.78;;;;;;;22.88;49.03;98780.38;5023053;28;20124;-68
2021/06/11 07:36:31;;;;;;;4.80;4.40;;;;;;;23.03;48.71;98795.06;5023521;28;20029;-67
2021/06/11 07:38:56;;;;;;;4.28;3.97;;;;;;;22.83;49.11;98795.56;5024070;28;20061;-68
2021/06/11 07:41:22;;;;;;;4.50;4.10;;;;;;;23.20;46.96;98792.16;5025711;28;20033;-67
2021/06/11 07:43:50;;;;;;;5.13;4.72;;;;;;;23.10;47.52;98791.94;5023544;28;20037;-67
2021/06/11 07:46:19;;;;;;;4.90;4.60;;;;;;;23.26;48.74;98790.88;5022580;28;20095;-68
2021/06/11 07:48:44;;;;;;;4.38;3.97;;;;;;;23.11;48.17;98793.63;5023204;28;20260;-67
2021/06/11 07:51:10;;;;;;;4.75;4.45;;;;;;;23.39;47.92;98783.88;5026049;28;20034;-68
2021/06/11 07:53:35;;;;;;;6.45;4.53;;;;;;;23.35;46.38;98790.25;5023803;28;20034;-68
2021/06/11 07:56:02;;;;;;;4.30;4.00;;;;;;;23.19;45.77;98785.25;5025536;28;20250;-68
2021/06/11 07:58:27;;;;;;;4.75;4.45;;;;;;;23.43;44.60;98782.72;5023994;28;20425;-67
2021/06/11 08:00:52;;;;;;;5.07;4.22;;;;;;;23.73;44.75;98787.66;5024851;28;20025;-68
2021/06/11 08:03:18;;;;;;;4.40;4.10;;;;;;;23.82;45.25;98789.63;5022883;28;20099;-68
2021/06/11 08:05:43;;;;;;;6.40;4.95;;;;;;;23.61;46.85;98794.56;5025573;28;20334;-68
2021/06/11 08:08:09;;;;;;;4.65;4.35;;;;;;;23.48;46.13;98785.91;5023135;28;20061;-66
2021/06/11 08:10:35;;;;;;;4.88;4.47;;;;;;;23.62;45.36;98789.25;5024598;28;20117;-69
2021/06/11 08:13:04;;;;;;;4.97;4.57;;;;;;;23.56;45.59;98788.81;5023451;28;20036;-68
2021/06/11 08:15:29;;;;;;;4.72;4.43;;;;;;;23.33;45.89;98795.63;5024934;28;20040;-66
2021/06/11 08:17:54;;;;;;;4.47;4.15;;;;;;;23.50;45.79;98792.72;5024760;28;20022;-64
2021/06/11 08:20:20;;;;;;;5.45;4.20;;;;;;;23.47;45.71;98792.91;5024263;28;20044;-67
2021/06/11 08:22:45;;;;;;;5.15;4.55;;;;;;;23.53;44.96;98787.25;5023580;28;20104;-68
2021/06/11 08:25:12;;;;;;;4.57;4.18;;;;;;;23.66;45.80;98795.09;5024953;28;20096;-69
2021/06/11 08:27:38;;;;;;;4.93;4.57;;;;;;;23.58;45.44;98797.41;5025646;28;20404;-65
2021/06/11 08:30:05;;;;;;;5.93;4.47;;;;;;;23.82;44.59;98800.09;5023489;28;20025;-67
2021/06/11 08:32:30;;;;;;;4.47;4.13;;;;;;;23.85;44.17;98802.53;5022673;28;20035;-66
2021/06/11 08:34:56;;;;;;;5.13;4.68;;;;;;;23.86;44.43;98797.16;5024914;28;20332;-67
2021/06/11 08:37:23;;;;;;;5.40;4.90;;;;;;;24.42;44.28;98794.91;5023894;28;20030;-66
2021/06/11 08:39:53;;;;;;;4.57;4.22;;;;;;;24.64;43.24;98799.44;5023742;28;20025;-67
2021/06/11 08:42:28;;;;;;;4.72;4.32;;;;;;;24.48;43.22;98792.69;5021161;28;20342;-66
2021/06/11 08:45:06;;;;;;;5.85;5.03;;;;;;;24.78;42.45;98794.81;5026295;28;20397;-66
2021/06/11 08:47:32;;;;;;;5.30;4.75;;;;;;;24.73;42.73;98783.03;5025665;28;20050;-67
2021/06/11 08:49:58;;;;;;;4.97;4.57;;;;;;;25.08;40.71;98788.28;5028845;28;20022;-68
2021/06/11 08:52:24;;;;;;;4.80;4.40;;;;;;;25.40;39.35;98784.03;5022269;28;20041;-67
2021/06/11 08:54:51;;;;;;;5.30;4.72;;;;;;;25.70;38.80;98783.47;5024736;28;20107;-67
2021/06/11 08:57:17;;;;;;;5.00;4.70;;;;;;;25.82;38.45;98787.75;5024560;28;20362;-67
2021/06/11 08:59:45;;;;;;;6.57;5.80;;;;;;;25.19;40.66;98791.75;5023965;28;20531;-67
2021/06/11 09:02:11;;;;;;;5.65;5.25;;;;;;;25.25;41.16;98791.28;5023548;28;20075;-67
2021/06/11 09:04:53;;;;;;;6.10;5.60;;;;;;;24.69;41.41;98782.41;5022147;28;20323;-67
2021/06/11 09:07:29;;;;;;;7.47;4.80;;;;;;;24.65;41.74;98780.97;5024821;28;20323;-67
2021/06/11 09:10:02;;;;;;;5.65;5.25;;;;;;;25.28;40.59;98788.44;5023199;28;20131;-67
2021/06/11 09:12:35;;;;;;;5.50;4.97;;;;;;;25.44;38.89;98780.22;5020802;28;20025;-67
2021/06/11 09:15:07;;;;;;;6.10;4.97;;;;;;;25.75;38.21;98778.72;5018238;28;20027;-67
2021/06/11 09:17:42;;;;;;;5.50;4.97;;;;;;;26.31;37.76;98779.44;5021878;28;20029;-67
2021/06/11 09:20:17;;;;;;;5.35;4.85;;;;;;;26.38;37.41;98779.81;5020163;28;20032;-67
2021/06/11 09:22:57;;;;;;;5.22;4.93;;;;;;;26.38;37.23;98774.53;5022415;28;20026;-67
2021/06/11 09:25:35;;;;;;;5.20;4.65;;;;;;;26.60;35.98;98764.78;5021092;28;20243;-66
2021/06/11 09:28:07;;;;;;;5.55;5.20;;;;;;;25.65;37.40;98780.38;5018554;28;20390;-67
2021/06/11 09:30:32;;;;;;;5.55;5.18;;;;;;;25.58;37.58;98769.53;5020953;28;20088;-67
2021/06/11 09:33:00;;;;;;;5.38;4.97;;;;;;;26.05;37.81;98773.66;5027564;28;20459;-67
2021/06/11 09:35:33;;;;;;;5.40;5.00;;;;;;;26.17;36.84;98767.41;5020696;28;20033;-67
2021/06/11 09:38:26;;;;;;;5.25;4.95;;;;;;;26.25;36.30;98772.91;5022449;28;20029;-67
2021/06/11 09:41:11;;;;;;;5.03;4.63;;;;;;;26.49;36.46;98763.97;5020319;28;20026;-67
2021/06/11 09:43:56;;;;;;;5.03;4.60;;;;;;;26.76;35.55;98765.19;5018949;28;20029;-67
2021/06/11 09:46:22;;;;;;;5.93;5.40;;;;;;;26.44;36.76;98761.72;5019916;28;20040;-67
2021/06/11 09:48:50;;;;;;;887.53;834.60;;;;;;;25.82;34.84;98762.34;5021121;28;20029;-67
2021/06/11 09:51:16;;;;;;;895.50;833.50;;;;;;;25.76;36.88;98767.22;5022505;28;20043;-66
2021/06/11 09:53:41;;;;;;;911.45;848.67;;;;;;;26.03;36.26;98757.16;5019871;28;20021;-66
2021/06/11 09:56:22;;;;;;;918.67;855.67;;;;;;;25.90;36.02;98756.47;5019869;28;20430;-66
2021/06/11 09:58:48;;;;;;;4.57;4.28;;;;;;;26.49;36.33;98745.56;5020060;28;20279;-68
2021/06/11 10:01:15;;;;;;;4.78;4.47;;;;;;;26.78;35.14;98733.47;5019623;28;20759;-69
2021/06/11 10:03:44;;;;;;;4.53;4.22;;;;;;;26.98;34.97;98743.22;5024067;28;20278;-67
2021/06/11 10:06:14;;;;;;;5.00;4.60;;;;;;;27.07;34.63;98734.53;5025256;28;20075;-68
2021/06/11 10:08:42;;;;;;;71.97;67.18;;;;;;;26.57;35.78;98737.88;5022805;28;20038;-68
2021/06/11 10:11:11;;;;;;;4.63;4.32;;;;;;;25.93;34.34;98735.19;5021629;28;20040;-67
2021/06/11 10:13:37;;;;;;;903.95;842.30;;;;;;;25.77;35.43;98735.59;5022856;28;20375;-67
2021/06/11 10:16:05;;;;;;;896.90;835.67;;;;;;;25.54;35.92;98744.47;5021316;28;20029;-66
2021/06/11 10:18:31;;;;;;;4.55;4.13;;;;;;;26.17;35.44;98733.25;5021783;28;20060;-67
2021/06/11 10:20:58;;;;;;;918.47;856.35;;;;;;;26.55;34.18;98721.41;5021137;28;20021;-67
2021/06/11 10:23:28;;;;;;;912.30;850.20;;;;;;;26.76;33.66;98717.00;5022439;28;20025;-67
2021/06/11 10:25:55;;;;;;;945.83;882.03;;;;;;;27.09;33.31;98715.97;5029358;28;20056;-67
2021/06/11 10:28:24;;;;;;;932.05;868.92;;;;;;;26.88;32.61;98716.00;5027614;28;20389;-66
2021/06/11 10:30:55;;;;;;;952.28;888.22;;;;;;;26.89;33.15;98719.47;5025897;28;20385;-65
2021/06/11 10:33:54;;;;;;;940.30;877.63;;;;;;;26.31;34.31;98718.97;5027045;28;20029;-66
2021/06/11 10:36:26;;;;;;;936.42;873.17;;;;;;;26.40;35.14;98712.13;5025420;28;20036;-66
2021/06/11 10:38:56;;;;;;;950.15;886.28;;;;;;;26.93;34.74;98700.66;5025996;28;20188;-66
2021/06/11 10:41:23;;;;;;;5.40;4.25;;;;;;;27.21;33.19;98699.94;5025917;28;20038;-65
2021/06/11 10:43:49;;;;;;;4.60;4.30;;;;;;;26.21;34.66;98703.16;5032569;28;20022;-66
2021/06/11 10:46:30;;;;;;;4.30;4.00;;;;;;;26.60;34.13;98688.50;5027672;28;20026;-65
2021/06/11 10:48:56;;;;;;;4.80;4.40;;;;;;;26.83;32.69;98692.66;5027172;28;20033;-66
2021/06/11 10:51:46;;;;;;;50.78;47.55;;;;;;;26.86;33.28;98694.25;5027799;28;20033;-65
2021/06/11 10:54:27;;;;;;;889.65;828.78;;;;;;;27.12;33.06;98690.22;5024965;28;20034;-66
2021/06/11 10:56:58;;;;;;;3.90;3.42;;;;;;;27.35;30.55;98690.88;5024969;28;20512;-66
2021/06/11 10:59:34;;;;;;;960.25;896.17;;;;;;;27.20;31.33;98681.69;5023051;28;20103;-66
2021/06/11 11:02:00;;;;;;;915.30;853.42;;;;;;;27.84;31.36;98676.88;5022304;28;20040;-66
2021/06/11 11:04:31;;;;;;;959.33;895.60;;;;;;;28.29;30.35;98671.13;5027401;28;20033;-66
2021/06/11 11:06:57;;;;;;;976.55;911.75;;;;;;;28.03;30.97;98676.09;5027606;28;20044;-67
2021/06/11 11:09:42;;;;;;;967.95;904.08;;;;;;;27.38;31.42;98679.22;5023724;28;20045;-66
2021/06/11 11:12:08;;;;;;;4.45;4.15;;;;;;;27.38;31.24;98668.69;5024337;28;20333;-65
2021/06/11 11:14:41;;;;;;;4.75;4.35;;;;;;;27.81;30.57;98671.88;5031999;28;20021;-66
2021/06/11 11:17:08;;;;;;;4.50;4.20;;;;;;;27.99;30.58;98672.91;5032396;28;20585;-65
2021/06/11 11:19:56;;;;;;;4.00;3.80;;;;;;;28.34;29.59;98676.81;5030041;28;20033;-66
2021/06/11 11:22:35;;;;;;;3.55;3.25;;;;;;;28.28;28.75;98674.72;5029691;28;20395;-66
2021/06/11 11:25:14;;;;;;;3.45;3.20;;;;;;;28.42;27.77;98676.94;5030346;28;20112;-67
2021/06/11 11:27:51;;;;;;;8.07;4.43;;;;;;;28.38;30.60;98676.41;5029891;28;20279;-66
2021/06/11 11:30:18;;;;;;;4.45;4.22;;;;;;;27.46;31.00;98666.22;5029009;28;20049;-65
2021/06/11 11:32:44;;;;;;;4.60;4.25;;;;;;;28.28;30.46;98670.28;5029177;28;20021;-66
2021/06/11 11:35:10;;;;;;;4.53;4.13;;;;;;;28.13;30.81;98664.59;5028614;28;20040;-65